Time;durP1;ratioP1;P1;durP2;ratioP2;P2;SDS_P1;SDS_P2;PMS_P1;PMS_P2;Temp;Humidity;BMP_temperature;BMP_pressure;BME280_temperature;BME280_humidity;BME280_pressure;Samples;Min_cycle;Max_cycle;Signal;HPM_P1;HPM_P2
2022/04/09 00:03:31;;;;;;;3.80;3.05;;;;;;;;;;8199670;28;20045;-75
2022/04/09 00:07:31;;;;;;;5.72;3.60;;;;;;;;;;8200122;28;20034;-75
2022/04/09 00:11:32;;;;;;;4.75;3.35;;;;;;;;;;8200622;28;20065;-76
2022/04/09 00:15:32;;;;;;;5.40;3.92;;;;;;;;;;8198811;28;20044;-75
2022/04/09 00:19:32;;;;;;;7.75;4.13;;;;;;;;;;8196810;28;20188;-75
2022/04/09 00:23:32;;;;;;;4.88;3.72;;;;;;;;;;8199193;28;20034;-75
2022/04/09 00:27:33;;;;;;;7.72;4.00;;;;;;;;;;8200062;28;20023;-75
2022/04/09 00:31:33;;;;;;;9.27;4.80;;;;;;;;;;8199310;28;20034;-76
2022/04/09 00:35:33;;;;;;;10.10;5.95;;;;;;;;;;8201345;28;21018;-76
2022/04/09 00:39:33;;;;;;;9.63;5.18;;;;;;;;;;8200513;28;20865;-75
2022/04/09 00:43:38;;;;;;;6.95;5.68;;;;;;;;;;8198434;28;20066;-75
2022/04/09 00:47:38;;;;;;;6.60;5.53;;;;;;;;;;8197338;28;20043;-75
2022/04/09 00:51:42;;;;;;;7.85;6.35;;;;;;;;;;8199665;28;20133;-75
2022/04/09 01:00:12;;;;;;;8.30;6.85;;;;;;;;;;8196677;28;20077;-76
2022/04/09 01:04:12;;;;;;;7.55;6.68;;;;;;;;;;8201346;28;20042;-75
2022/04/09 01:08:12;;;;;;;12.95;8.63;;;;;;;;;;8202811;28;20129;-76
2022/04/09 01:12:14;;;;;;;17.47;10.37;;;;;;;;;;8214736;28;20476;-76
2022/04/09 01:16:14;;;;;;;11.05;7.68;;;;;;;;;;8190003;28;20302;-76
2022/04/09 01:20:19;;;;;;;12.57;7.82;;;;;;;;;;8199281;28;20045;-76
2022/04/09 01:24:19;;;;;;;11.43;7.45;;;;;;;;;;8206257;28;20034;-75
2022/04/09 01:28:19;;;;;;;9.05;7.30;;;;;;;;;;8197347;28;20041;-75
2022/04/09 01:32:19;;;;;;;10.45;7.80;;;;;;;;;;8195980;28;20042;-76
2022/04/09 01:36:20;;;;;;;11.77;7.77;;;;;;;;;;8198324;28;20031;-75
2022/04/09 01:40:20;;;;;;;11.30;8.43;;;;;;;;;;8197323;28;20285;-75
2022/04/09 01:44:20;;;;;;;12.40;8.83;;;;;;;;;;8199267;28;20030;-74
2022/04/09 01:48:20;;;;;;;11.77;8.30;;;;;;;;;;8201122;28;20313;-75
2022/04/09 01:52:21;;;;;;;16.65;8.63;;;;;;;;;;8199429;28;20045;-74
2022/04/09 01:56:21;;;;;;;18.05;9.93;;;;;;;;;;8197441;28;20054;-75
2022/04/09 02:00:22;;;;;;;10.85;8.02;;;;;;;;;;8197426;28;20030;-75
2022/04/09 02:04:22;;;;;;;9.77;7.70;;;;;;;;;;8199567;28;20073;-75
2022/04/09 02:08:23;;;;;;;12.93;8.68;;;;;;;;;;8196717;28;20038;-75
2022/04/09 02:12:23;;;;;;;10.18;6.80;;;;;;;;;;8196647;28;20468;-75
2022/04/09 02:16:23;;;;;;;10.00;6.27;;;;;;;;;;8195749;28;20049;-75
2022/04/09 02:20:23;;;;;;;13.48;5.88;;;;;;;;;;8202668;28;20278;-75
2022/04/09 02:24:23;;;;;;;8.15;5.32;;;;;;;;;;8198450;28;20105;-75
2022/04/09 02:28:26;;;;;;;9.10;5.60;;;;;;;;;;8196081;28;20114;-75
2022/04/09 02:32:26;;;;;;;9.05;5.38;;;;;;;;;;8204047;28;20038;-75
2022/04/09 02:36:27;;;;;;;10.48;5.88;;;;;;;;;;8198855;28;20153;-75
2022/04/09 02:40:28;;;;;;;10.23;6.18;;;;;;;;;;8197105;28;20499;-75
2022/04/09 02:44:30;;;;;;;10.38;5.25;;;;;;;;;;8199812;28;20027;-75
2022/04/09 02:48:30;;;;;;;9.73;5.35;;;;;;;;;;8202965;28;20299;-75
2022/04/09 02:52:34;;;;;;;11.50;5.50;;;;;;;;;;8215361;28;20044;-75
2022/04/09 02:56:34;;;;;;;10.25;5.50;;;;;;;;;;8201484;28;20027;-75
2022/04/09 03:00:35;;;;;;;12.85;6.35;;;;;;;;;;8199311;28;20038;-75
2022/04/09 03:04:35;;;;;;;7.40;5.15;;;;;;;;;;8198256;28;20038;-75
2022/04/09 03:08:35;;;;;;;10.63;5.67;;;;;;;;;;8198427;28;20026;-75
2022/04/09 03:12:35;;;;;;;12.80;5.75;;;;;;;;;;8200702;28;20285;-74
2022/04/09 03:16:35;;;;;;;9.55;4.60;;;;;;;;;;8202631;28;20066;-74
2022/04/09 03:20:36;;;;;;;10.57;4.50;;;;;;;;;;8204138;28;20030;-74
2022/04/09 03:24:36;;;;;;;7.15;4.20;;;;;;;;;;8203059;28;20054;-74
2022/04/09 03:28:36;;;;;;;8.20;4.10;;;;;;;;;;8202803;28;20084;-74
2022/04/09 03:32:37;;;;;;;8.68;4.53;;;;;;;;;;8201822;28;20039;-74
2022/04/09 03:36:38;;;;;;;7.60;4.38;;;;;;;;;;8202525;28;20054;-74
2022/04/09 03:40:38;;;;;;;9.02;3.90;;;;;;;;;;8204474;28;20713;-74
2022/04/09 03:44:39;;;;;;;10.70;4.50;;;;;;;;;;8206178;28;20039;-74
2022/04/09 03:48:39;;;;;;;12.50;4.45;;;;;;;;;;8205195;28;20065;-74
2022/04/09 03:52:39;;;;;;;8.52;3.83;;;;;;;;;;8209148;28;20030;-74
2022/04/09 03:56:41;;;;;;;10.80;3.78;;;;;;;;;;8203931;28;20030;-74
2022/04/09 04:00:41;;;;;;;11.05;3.03;;;;;;;;;;8205250;28;20053;-74
2022/04/09 04:04:42;;;;;;;11.48;3.90;;;;;;;;;;8204729;28;20081;-74
2022/04/09 04:08:43;;;;;;;7.32;3.25;;;;;;;;;;8202447;28;20027;-74
2022/04/09 04:12:44;;;;;;;7.70;3.67;;;;;;;;;;8203480;28;20788;-74
2022/04/09 04:16:44;;;;;;;5.00;3.35;;;;;;;;;;8202090;28;20070;-74
2022/04/09 04:20:44;;;;;;;7.23;3.00;;;;;;;;;;8200573;28;20018;-74
2022/04/09 04:24:45;;;;;;;7.32;3.50;;;;;;;;;;8214940;28;20258;-73
2022/04/09 04:28:54;;;;;;;8.30;4.38;;;;;;;;;;8202057;28;20029;-74
2022/04/09 04:32:54;;;;;;;9.75;4.72;;;;;;;;;;8197826;28;20226;-74
2022/04/09 04:36:54;;;;;;;7.68;4.15;;;;;;;;;;8201355;28;20065;-73
2022/04/09 04:40:55;;;;;;;7.85;3.90;;;;;;;;;;8198373;28;20419;-74
2022/04/09 04:44:55;;;;;;;12.38;4.00;;;;;;;;;;8201118;28;20019;-74
2022/04/09 04:48:55;;;;;;;7.63;3.72;;;;;;;;;;8202420;28;20035;-74
2022/04/09 04:52:55;;;;;;;12.55;4.47;;;;;;;;;;8200088;28;20035;-74
2022/04/09 04:56:56;;;;;;;8.73;3.95;;;;;;;;;;8214903;28;20044;-74
2022/04/09 05:00:56;;;;;;;12.35;5.22;;;;;;;;;;8198889;28;20039;-74
2022/04/09 05:04:56;;;;;;;12.43;5.05;;;;;;;;;;8198319;28;21154;-72
2022/04/09 05:08:56;;;;;;;19.48;9.70;;;;;;;;;;8202293;28;20061;-72
2022/04/09 05:12:58;;;;;;;12.18;4.88;;;;;;;;;;8197812;28;20105;-72
2022/04/09 05:16:59;;;;;;;13.73;4.38;;;;;;;;;;8196878;28;20084;-72
2022/04/09 05:20:59;;;;;;;8.23;4.20;;;;;;;;;;8198440;28;20550;-71
2022/04/09 05:24:59;;;;;;;7.68;4.45;;;;;;;;;;8195999;28;20030;-72
2022/04/09 05:29:00;;;;;;;13.00;4.75;;;;;;;;;;8195571;28;20026;-71
2022/04/09 05:33:00;;;;;;;13.65;5.05;;;;;;;;;;8194889;28;20897;-71
2022/04/09 05:37:00;;;;;;;9.60;3.95;;;;;;;;;;8197788;28;20026;-71
2022/04/09 05:41:01;;;;;;;9.65;4.60;;;;;;;;;;8197138;28;20102;-71
2022/04/09 05:45:02;;;;;;;6.97;4.27;;;;;;;;;;8197275;28;20287;-72
2022/04/09 05:49:02;;;;;;;12.10;4.53;;;;;;;;;;8189853;28;20320;-72
2022/04/09 05:53:02;;;;;;;10.35;4.25;;;;;;;;;;8196656;28;20486;-72
2022/04/09 05:57:03;;;;;;;10.45;3.70;;;;;;;;;;8208842;28;20030;-74
2022/04/09 06:01:04;;;;;;;9.98;4.38;;;;;;;;;;8194665;28;20134;-71
2022/04/09 06:05:04;;;;;;;10.32;3.00;;;;;;;;;;8196225;28;20062;-71
2022/04/09 06:09:04;;;;;;;8.90;3.45;;;;;;;;;;8196387;28;20092;-72
2022/04/09 06:13:05;;;;;;;6.43;3.42;;;;;;;;;;8193010;28;20042;-72
2022/04/09 06:17:06;;;;;;;8.07;3.70;;;;;;;;;;8196651;28;20575;-71
2022/04/09 06:21:06;;;;;;;7.20;3.63;;;;;;;;;;8194842;28;20042;-72
2022/04/09 06:25:07;;;;;;;10.07;3.17;;;;;;;;;;8195054;28;20101;-71
2022/04/09 06:29:07;;;;;;;6.82;3.00;;;;;;;;;;8193778;28;20129;-71
2022/04/09 06:33:07;;;;;;;6.30;2.72;;;;;;;;;;8194162;28;20041;-71
2022/04/09 06:37:07;;;;;;;6.63;3.63;;;;;;;;;;8193863;28;20039;-71
2022/04/09 06:41:07;;;;;;;7.00;2.90;;;;;;;;;;8192011;28;20058;-71
2022/04/09 06:45:08;;;;;;;6.22;2.75;;;;;;;;;;8194588;28;20027;-71
2022/04/09 06:49:12;;;;;;;6.78;2.83;;;;;;;;;;8199853;28;20042;-71
2022/04/09 06:53:12;;;;;;;8.38;2.80;;;;;;;;;;8201072;28;20412;-71
2022/04/09 06:57:12;;;;;;;8.52;2.83;;;;;;;;;;8200355;28;20046;-71
2022/04/09 07:01:12;;;;;;;8.00;3.13;;;;;;;;;;8197973;28;20035;-71
2022/04/09 07:05:13;;;;;;;5.95;3.10;;;;;;;;;;8200072;28;20329;-71
2022/04/09 07:09:13;;;;;;;6.77;2.97;;;;;;;;;;8200765;28;20729;-71
2022/04/09 07:13:13;;;;;;;8.17;2.90;;;;;;;;;;8197546;28;21222;-71
2022/04/09 07:17:18;;;;;;;6.53;3.20;;;;;;;;;;8197384;28;20301;-72
2022/04/09 07:21:20;;;;;;;6.90;3.25;;;;;;;;;;8197882;28;20627;-71
2022/04/09 07:25:20;;;;;;;6.82;3.10;;;;;;;;;;8200536;28;20022;-71
2022/04/09 07:29:20;;;;;;;6.87;3.20;;;;;;;;;;8201000;28;20026;-72
2022/04/09 07:33:20;;;;;;;8.90;3.72;;;;;;;;;;8213677;28;20931;-72
2022/04/09 07:37:21;;;;;;;6.72;3.05;;;;;;;;;;8198879;28;20031;-72
2022/04/09 07:41:21;;;;;;;8.85;3.20;;;;;;;;;;8199417;28;20026;-72
2022/04/09 07:45:21;;;;;;;7.88;3.10;;;;;;;;;;8200602;28;20081;-73
2022/04/09 07:49:21;;;;;;;7.50;3.22;;;;;;;;;;8197173;28;20026;-73
2022/04/09 07:53:21;;;;;;;6.32;3.00;;;;;;;;;;8199916;28;20093;-72
2022/04/09 07:57:23;;;;;;;5.82;2.90;;;;;;;;;;8197221;28;20049;-72
2022/04/09 08:01:24;;;;;;;9.57;3.40;;;;;;;;;;8198157;28;20089;-72
2022/04/09 08:05:24;;;;;;;8.30;3.27;;;;;;;;;;8198982;28;20030;-72
2022/04/09 08:09:24;;;;;;;7.43;2.93;;;;;;;;;;8197967;28;20045;-73
2022/04/09 08:13:24;;;;;;;9.50;3.30;;;;;;;;;;8196869;28;20854;-73
2022/04/09 08:17:25;;;;;;;8.63;3.45;;;;;;;;;;8198425;28;20503;-73
2022/04/09 08:21:25;;;;;;;5.97;3.05;;;;;;;;;;8199925;28;20126;-72
2022/04/09 08:25:25;;;;;;;7.93;2.85;;;;;;;;;;8196932;28;20026;-72
2022/04/09 08:29:25;;;;;;;7.33;2.50;;;;;;;;;;8197275;28;20054;-72
2022/04/09 08:33:25;;;;;;;8.83;3.23;;;;;;;;;;8199416;28;21131;-72
2022/04/09 08:37:26;;;;;;;11.60;3.20;;;;;;;;;;8198460;28;20041;-72
2022/04/09 08:41:26;;;;;;;8.40;2.90;;;;;;;;;;8199400;28;20293;-72
2022/04/09 08:45:26;;;;;;;7.32;2.83;;;;;;;;;;8199825;28;20122;-72
2022/04/09 08:49:28;;;;;;;7.47;2.15;;;;;;;;;;8201222;28;20028;-72
2022/04/09 08:53:28;;;;;;;7.15;2.55;;;;;;;;;;8193757;28;20049;-72
2022/04/09 08:57:29;;;;;;;6.88;2.50;;;;;;;;;;8198290;28;20031;-72
2022/04/09 09:01:29;;;;;;;11.13;2.80;;;;;;;;;;8196811;28;20035;-72
2022/04/09 09:05:45;;;;;;;7.38;2.53;;;;;;;;;;8203497;28;20278;-72
2022/04/09 09:09:45;;;;;;;8.88;2.55;;;;;;;;;;8203659;28;20027;-72
2022/04/09 09:13:46;;;;;;;10.65;2.90;;;;;;;;;;8200787;28;20080;-73
2022/04/09 09:17:47;;;;;;;6.53;2.78;;;;;;;;;;8196876;28;20073;-73
2022/04/09 09:21:51;;;;;;;8.45;2.42;;;;;;;;;;8200833;28;20026;-73
2022/04/09 09:25:52;;;;;;;6.78;2.53;;;;;;;;;;8198949;28;20027;-73
2022/04/09 09:29:53;;;;;;;6.38;2.45;;;;;;;;;;8198639;28;20808;-73
2022/04/09 09:34:06;;;;;;;7.88;2.53;;;;;;;;;;8196785;28;20415;-73
2022/04/09 09:38:20;;;;;;;9.43;2.78;;;;;;;;;;8196762;28;20027;-74
2022/04/09 09:42:21;;;;;;;10.63;2.83;;;;;;;;;;8211971;28;20921;-74
2022/04/09 09:46:22;;;;;;;12.00;2.75;;;;;;;;;;8197060;28;20972;-73
2022/04/09 09:50:39;;;;;;;9.70;2.88;;;;;;;;;;8197978;28;20256;-73
2022/04/09 09:54:55;;;;;;;5.68;2.05;;;;;;;;;;8199081;28;20038;-73
2022/04/09 09:58:55;;;;;;;10.15;2.38;;;;;;;;;;8199259;28;20089;-73
2022/04/09 10:02:58;;;;;;;8.85;2.60;;;;;;;;;;8197056;28;20035;-73
2022/04/09 10:06:58;;;;;;;8.75;2.17;;;;;;;;;;8200167;28;20029;-72
2022/04/09 10:11:01;;;;;;;11.50;2.20;;;;;;;;;;8198420;28;20058;-73
2022/04/09 10:15:02;;;;;;;6.53;1.90;;;;;;;;;;8199138;28;20383;-73
2022/04/09 10:19:04;;;;;;;6.33;1.97;;;;;;;;;;8201221;28;20058;-73
2022/04/09 10:23:06;;;;;;;7.68;2.17;;;;;;;;;;8199667;28;20329;-73
2022/04/09 10:27:08;;;;;;;5.97;2.33;;;;;;;;;;8201804;28;20026;-73
2022/04/09 10:31:23;;;;;;;8.85;1.90;;;;;;;;;;8198418;28;20335;-73
2022/04/09 10:35:24;;;;;;;8.25;2.15;;;;;;;;;;8199723;28;20065;-73
2022/04/09 10:39:26;;;;;;;7.78;2.00;;;;;;;;;;8195930;28;20050;-73
2022/04/09 10:43:26;;;;;;;4.07;1.60;;;;;;;;;;8195432;28;20471;-73
2022/04/09 10:47:26;;;;;;;8.57;2.75;;;;;;;;;;8196297;28;20117;-73
2022/04/09 10:51:46;;;;;;;7.85;2.13;;;;;;;;;;8197235;28;20038;-73
2022/04/09 10:56:05;;;;;;;7.80;1.75;;;;;;;;;;8198524;28;20127;-73
2022/04/09 11:00:06;;;;;;;7.78;1.90;;;;;;;;;;8199311;28;20089;-73
2022/04/09 11:04:25;;;;;;;5.75;2.03;;;;;;;;;;8198402;28;20092;-73
2022/04/09 11:08:25;;;;;;;11.73;2.15;;;;;;;;;;8197427;28;20042;-72
2022/04/09 11:12:37;;;;;;;8.13;2.17;;;;;;;;;;8197738;28;20050;-72
2022/04/09 11:16:38;;;;;;;8.88;1.98;;;;;;;;;;8196295;28;20038;-72
2022/04/09 11:20:38;;;;;;;7.93;2.40;;;;;;;;;;8195233;28;20488;-73
2022/04/09 11:24:38;;;;;;;8.80;1.83;;;;;;;;;;8196502;28;20349;-73
2022/04/09 11:28:39;;;;;;;9.38;1.77;;;;;;;;;;8195202;28;20276;-78
2022/04/09 11:32:39;;;;;;;4.82;1.52;;;;;;;;;;8199500;28;20134;-74
2022/04/09 11:36:39;;;;;;;8.90;1.73;;;;;;;;;;8201786;28;20939;-72
2022/04/09 11:40:46;;;;;;;4.28;1.50;;;;;;;;;;8204128;28;20508;-74
2022/04/09 11:44:46;;;;;;;8.13;2.03;;;;;;;;;;8201022;28;20415;-73
2022/04/09 11:49:05;;;;;;;5.85;1.88;;;;;;;;;;8200408;28;20038;-74
2022/04/09 11:53:12;;;;;;;5.93;1.88;;;;;;;;;;8200546;28;20572;-73
2022/04/09 11:57:12;;;;;;;7.97;1.90;;;;;;;;;;8197791;28;20037;-73
2022/04/09 12:01:12;;;;;;;6.15;1.73;;;;;;;;;;8195760;28;20153;-73
2022/04/09 12:05:12;;;;;;;9.80;2.33;;;;;;;;;;8197982;28;20070;-73
2022/04/09 12:09:13;;;;;;;6.40;1.70;;;;;;;;;;8198759;28;20490;-73
2022/04/09 12:13:13;;;;;;;5.10;1.65;;;;;;;;;;8198800;28;20038;-73
2022/04/09 12:17:15;;;;;;;4.47;1.40;;;;;;;;;;8203894;28;20046;-73
2022/04/09 12:21:25;;;;;;;10.27;1.80;;;;;;;;;;8197014;28;20274;-72
2022/04/09 12:25:35;;;;;;;9.43;1.95;;;;;;;;;;8196671;28;20030;-73
2022/04/09 12:29:45;;;;;;;7.82;1.90;;;;;;;;;;8201088;28;20022;-73
2022/04/09 12:33:58;;;;;;;4.45;1.77;;;;;;;;;;8200953;28;20039;-72
2022/04/09 12:37:58;;;;;;;8.40;2.15;;;;;;;;;;8202715;28;20559;-71
2022/04/09 12:41:59;;;;;;;8.88;1.95;;;;;;;;;;8198613;28;20362;-71
2022/04/09 12:46:02;;;;;;;8.00;1.98;;;;;;;;;;8194870;28;20031;-71
2022/04/09 12:50:04;;;;;;;5.57;1.70;;;;;;;;;;8198311;28;20892;-70
2022/04/09 12:54:04;;;;;;;5.35;1.60;;;;;;;;;;8204088;28;20089;-70
2022/04/09 12:58:04;;;;;;;4.55;1.85;;;;;;;;;;8207243;28;20027;-70
2022/04/09 13:02:05;;;;;;;3.67;1.08;;;;;;;;;;8201010;28;20066;-70
2022/04/09 13:06:06;;;;;;;5.20;1.65;;;;;;;;;;8197296;28;20073;-71
2022/04/09 13:10:07;;;;;;;8.20;2.17;;;;;;;;;;8195760;28;20162;-71
2022/04/09 13:14:07;;;;;;;5.38;1.70;;;;;;;;;;8194713;28;20097;-72
2022/04/09 13:18:07;;;;;;;8.98;2.15;;;;;;;;;;8196315;28;20827;-71
2022/04/09 13:22:09;;;;;;;7.47;2.10;;;;;;;;;;8196845;28;20029;-71
2022/04/09 13:26:09;;;;;;;6.63;2.15;;;;;;;;;;8198457;28;20023;-71
2022/04/09 13:30:10;;;;;;;5.25;2.30;;;;;;;;;;8200232;28;20015;-71
2022/04/09 13:34:14;;;;;;;6.80;2.40;;;;;;;;;;8216465;28;20093;-71
2022/04/09 13:38:16;;;;;;;;;;;;;;;;;;8195806;28;20026;-71
2022/04/09 13:42:17;;;;;;;10.00;2.38;;;;;;;;;;8192672;28;20044;-72
2022/04/09 13:46:17;;;;;;;5.00;2.03;;;;;;;;;;8196349;28;20987;-72
2022/04/09 13:50:18;;;;;;;6.80;2.25;;;;;;;;;;8192243;28;20022;-73
2022/04/09 13:54:18;;;;;;;7.57;2.67;;;;;;;;;;8195621;28;20030;-73
2022/04/09 13:58:18;;;;;;;6.32;2.05;;;;;;;;;;8194686;28;20105;-72
2022/04/09 14:02:18;;;;;;;6.17;2.10;;;;;;;;;;8193635;28;20047;-72
2022/04/09 14:06:21;;;;;;;4.22;1.70;;;;;;;;;;8194929;28;20267;-72
2022/04/09 14:10:21;;;;;;;8.07;1.67;;;;;;;;;;8188498;28;20096;-72
2022/04/09 14:14:24;;;;;;;7.70;1.73;;;;;;;;;;8193787;28;20022;-72
2022/04/09 14:18:24;;;;;;;4.60;1.30;;;;;;;;;;8192686;28;20042;-73
2022/04/09 14:22:25;;;;;;;4.78;2.05;;;;;;;;;;8196365;28;20022;-72
2022/04/09 14:26:25;;;;;;;2.65;1.48;;;;;;;;;;8196367;28;20447;-73
2022/04/09 14:30:26;;;;;;;4.63;1.77;;;;;;;;;;8193175;28;20042;-73
2022/04/09 14:34:26;;;;;;;4.53;1.60;;;;;;;;;;8193736;28;20019;-73
2022/04/09 14:38:26;;;;;;;4.47;1.50;;;;;;;;;;8208596;28;20022;-73
2022/04/09 14:42:26;;;;;;;5.60;2.22;;;;;;;;;;8192167;28;20062;-73
2022/04/09 14:46:27;;;;;;;7.20;2.00;;;;;;;;;;8192462;28;20069;-73
2022/04/09 14:50:27;;;;;;;6.65;2.10;;;;;;;;;;8191597;28;20608;-73
2022/04/09 14:54:27;;;;;;;6.17;1.50;;;;;;;;;;8192494;28;20077;-73
2022/04/09 14:58:28;;;;;;;6.35;1.65;;;;;;;;;;8191222;28;20289;-73
2022/04/09 15:02:28;;;;;;;3.22;1.45;;;;;;;;;;8189644;28;20452;-73
2022/04/09 15:06:29;;;;;;;6.45;1.63;;;;;;;;;;8193093;28;20101;-72
2022/04/09 15:10:30;;;;;;;4.18;1.50;;;;;;;;;;8198900;28;20566;-73
2022/04/09 15:14:31;;;;;;;4.25;1.70;;;;;;;;;;8200570;28;20476;-73
2022/04/09 15:18:32;;;;;;;6.95;1.40;;;;;;;;;;8196110;28;20051;-73
2022/04/09 15:22:32;;;;;;;3.70;1.25;;;;;;;;;;8197113;28;20038;-72
2022/04/09 15:26:32;;;;;;;2.30;1.20;;;;;;;;;;8187228;28;20034;-72
2022/04/09 15:30:32;;;;;;;2.63;0.98;;;;;;;;;;8194710;28;20563;-72
2022/04/09 15:34:33;;;;;;;2.25;0.95;;;;;;;;;;8195721;28;20030;-71
2022/04/09 15:38:33;;;;;;;2.47;0.90;;;;;;;;;;8196845;28;20035;-71
2022/04/09 15:42:33;;;;;;;5.00;1.10;;;;;;;;;;8197609;28;20035;-71
2022/04/09 15:46:34;;;;;;;4.75;1.02;;;;;;;;;;8201423;28;20221;-72
2022/04/09 15:50:35;;;;;;;4.45;1.00;;;;;;;;;;8195204;28;20471;-72
2022/04/09 15:54:36;;;;;;;3.93;0.93;;;;;;;;;;8197755;28;20041;-72
2022/04/09 15:58:37;;;;;;;2.35;1.00;;;;;;;;;;8196767;28;20035;-72
2022/04/09 16:02:39;;;;;;;2.65;1.10;;;;;;;;;;8195950;28;20036;-72
2022/04/09 16:06:40;;;;;;;3.88;1.15;;;;;;;;;;8198691;28;20369;-72
2022/04/09 16:10:40;;;;;;;3.30;0.80;;;;;;;;;;8200143;28;20034;-72
2022/04/09 16:14:41;;;;;;;4.22;1.20;;;;;;;;;;8198238;28;20157;-72
2022/04/09 16:18:41;;;;;;;5.23;1.20;;;;;;;;;;8203713;28;20077;-72
2022/04/09 16:22:41;;;;;;;2.97;1.27;;;;;;;;;;8200048;28;20280;-72
2022/04/09 16:26:41;;;;;;;4.20;1.17;;;;;;;;;;8199463;28;20057;-70
2022/04/09 16:30:42;;;;;;;9.93;1.10;;;;;;;;;;8198645;28;20086;-72
2022/04/09 16:34:43;;;;;;;3.70;1.20;;;;;;;;;;8195079;28;20388;-72
2022/04/09 16:38:43;;;;;;;2.05;1.13;;;;;;;;;;8198187;28;20031;-72
2022/04/09 16:42:43;;;;;;;2.30;1.30;;;;;;;;;;8196704;28;20035;-72
2022/04/09 16:46:44;;;;;;;3.85;1.50;;;;;;;;;;8194308;28;20035;-72
2022/04/09 16:50:44;;;;;;;3.67;1.20;;;;;;;;;;8194762;28;20023;-71
2022/04/09 16:54:44;;;;;;;2.15;1.25;;;;;;;;;;8195951;28;20041;-71
2022/04/09 16:58:44;;;;;;;6.30;1.58;;;;;;;;;;8194884;28;20029;-71
2022/04/09 17:02:44;;;;;;;1.73;1.17;;;;;;;;;;8196272;28;20039;-71
2022/04/09 17:06:45;;;;;;;2.50;1.10;;;;;;;;;;8200069;28;20051;-72
2022/04/09 17:10:45;;;;;;;2.28;1.00;;;;;;;;;;8192572;28;20030;-72
2022/04/09 17:14:46;;;;;;;2.08;1.20;;;;;;;;;;8192760;28;20030;-73
2022/04/09 17:18:46;;;;;;;1.85;1.30;;;;;;;;;;8192993;28;20034;-72
2022/04/09 17:22:46;;;;;;;4.40;1.85;;;;;;;;;;8194091;28;20046;-72
2022/04/09 17:26:47;;;;;;;3.70;1.48;;;;;;;;;;8192088;28;20069;-71
2022/04/09 17:30:47;;;;;;;2.88;1.20;;;;;;;;;;8196325;28;20685;-72
2022/04/09 17:34:47;;;;;;;3.37;1.27;;;;;;;;;;8192696;28;20027;-71
2022/04/09 17:38:48;;;;;;;2.50;1.20;;;;;;;;;;8190166;28;20281;-72
2022/04/09 17:42:48;;;;;;;2.90;1.50;;;;;;;;;;8192733;28;20040;-72
2022/04/09 17:46:49;;;;;;;2.90;1.33;;;;;;;;;;8192132;28;20154;-71
2022/04/09 17:50:49;;;;;;;2.45;1.40;;;;;;;;;;8190748;28;20023;-72
2022/04/09 17:54:49;;;;;;;1.40;1.10;;;;;;;;;;8191654;28;20063;-71
2022/04/09 17:58:50;;;;;;;2.25;1.23;;;;;;;;;;8191644;28;20019;-71
2022/04/09 18:02:50;;;;;;;3.55;1.17;;;;;;;;;;8188688;28;20030;-71
2022/04/09 18:06:50;;;;;;;4.78;1.30;;;;;;;;;;8192210;28;20046;-71
2022/04/09 18:10:51;;;;;;;3.63;0.95;;;;;;;;;;8188782;28;20034;-71
2022/04/09 18:14:51;;;;;;;4.75;1.55;;;;;;;;;;8191753;28;20035;-71
2022/04/09 18:18:51;;;;;;;2.35;1.10;;;;;;;;;;8186910;28;20042;-71
2022/04/09 18:22:52;;;;;;;1.25;0.80;;;;;;;;;;8188988;28;20505;-71
2022/04/09 18:26:53;;;;;;;3.40;1.15;;;;;;;;;;8203456;28;20026;-71
2022/04/09 18:30:53;;;;;;;1.83;0.90;;;;;;;;;;8186887;28;20039;-72
2022/04/09 18:34:53;;;;;;;5.22;1.48;;;;;;;;;;8190106;28;20736;-72
2022/04/09 18:38:53;;;;;;;4.40;1.20;;;;;;;;;;8191493;28;20023;-71
2022/04/09 18:42:54;;;;;;;2.38;1.27;;;;;;;;;;8187689;28;20154;-72
2022/04/09 18:46:54;;;;;;;1.90;0.90;;;;;;;;;;8191542;28;20038;-73
2022/04/09 18:50:54;;;;;;;4.60;1.25;;;;;;;;;;8189840;28;20145;-73
2022/04/09 18:55:05;;;;;;;1.73;1.20;;;;;;;;;;8226729;28;20022;-75
2022/04/09 18:59:05;;;;;;;4.95;1.50;;;;;;;;;;8230462;28;20086;-75
2022/04/09 19:03:05;;;;;;;5.10;1.23;;;;;;;;;;8216384;28;20034;-75
2022/04/09 19:07:07;;;;;;;2.40;1.25;;;;;;;;;;8212686;28;20042;-75
2022/04/09 19:11:07;;;;;;;4.18;1.70;;;;;;;;;;8207327;28;20019;-74
2022/04/09 19:15:08;;;;;;;2.80;1.73;;;;;;;;;;8199144;28;20058;-75
2022/04/09 19:19:10;;;;;;;6.75;1.50;;;;;;;;;;8208227;28;20511;-74
2022/04/09 19:23:10;;;;;;;6.15;1.88;;;;;;;;;;8216897;28;20089;-76
2022/04/09 19:27:11;;;;;;;3.45;2.08;;;;;;;;;;8203151;28;20026;-76
2022/04/09 19:31:17;;;;;;;2.80;1.60;;;;;;;;;;8200725;28;20042;-76
2022/04/09 19:35:17;;;;;;;3.67;1.58;;;;;;;;;;8202490;28;20030;-74
2022/04/09 19:39:18;;;;;;;3.38;1.80;;;;;;;;;;8200968;28;20022;-75
2022/04/09 19:43:18;;;;;;;3.20;1.60;;;;;;;;;;8204099;28;20085;-75
2022/04/09 19:47:18;;;;;;;3.77;1.67;;;;;;;;;;8219404;28;20093;-75
2022/04/09 19:51:19;;;;;;;3.03;1.60;;;;;;;;;;8199104;28;20285;-74
2022/04/09 19:55:19;;;;;;;2.92;1.50;;;;;;;;;;8198621;28;20065;-74
2022/04/09 19:59:19;;;;;;;3.88;1.67;;;;;;;;;;8198640;28;20034;-74
2022/04/09 20:03:20;;;;;;;6.70;1.73;;;;;;;;;;8198554;28;20038;-74
2022/04/09 20:07:20;;;;;;;2.17;1.40;;;;;;;;;;8232789;28;20277;-74
2022/04/09 20:11:23;;;;;;;3.90;1.73;;;;;;;;;;8214505;28;20066;-74
2022/04/09 20:15:23;;;;;;;2.88;1.50;;;;;;;;;;8214989;28;20049;-74
2022/04/09 20:19:23;;;;;;;2.88;1.90;;;;;;;;;;8218565;28;20123;-73
2022/04/09 20:23:23;;;;;;;4.20;1.55;;;;;;;;;;8220098;28;20031;-73
2022/04/09 20:27:24;;;;;;;4.13;1.52;;;;;;;;;;8213193;28;20030;-73
2022/04/09 20:31:24;;;;;;;1.95;1.60;;;;;;;;;;8222209;28;20220;-73
2022/04/09 20:35:25;;;;;;;1.52;1.40;;;;;;;;;;8220688;28;20031;-73
2022/04/09 20:39:26;;;;;;;2.38;1.50;;;;;;;;;;8219478;28;20043;-73
2022/04/09 20:43:27;;;;;;;5.25;1.70;;;;;;;;;;8217621;28;20137;-74
2022/04/09 20:47:28;;;;;;;2.50;1.45;;;;;;;;;;8215520;28;20085;-74
2022/04/09 20:51:29;;;;;;;3.88;1.77;;;;;;;;;;8218467;28;20085;-73
2022/04/09 20:55:31;;;;;;;3.55;1.77;;;;;;;;;;8219442;28;20357;-73
2022/04/09 20:59:34;;;;;;;3.70;1.80;;;;;;;;;;8223177;28;20026;-73
2022/04/09 21:03:35;;;;;;;3.45;1.90;;;;;;;;;;8220871;28;20035;-73
2022/04/09 21:07:35;;;;;;;5.57;1.73;;;;;;;;;;8217798;28;20073;-74
2022/04/09 21:11:37;;;;;;;3.73;1.67;;;;;;;;;;8219915;28;20030;-74
2022/04/09 21:15:38;;;;;;;2.97;1.75;;;;;;;;;;8229822;28;20795;-74
2022/04/09 21:19:40;;;;;;;3.45;1.75;;;;;;;;;;8221363;28;20037;-74
2022/04/09 21:23:43;;;;;;;5.13;2.05;;;;;;;;;;8228137;28;20121;-74
2022/04/09 21:27:43;;;;;;;3.58;1.75;;;;;;;;;;8228711;28;20031;-74
2022/04/09 21:31:43;;;;;;;4.67;1.77;;;;;;;;;;8227422;28;20097;-74
2022/04/09 21:35:45;;;;;;;3.35;1.75;;;;;;;;;;8232219;28;20336;-74
2022/04/09 21:39:48;;;;;;;3.33;1.92;;;;;;;;;;8216423;28;20034;-74
2022/04/09 21:43:48;;;;;;;2.63;1.70;;;;;;;;;;8219533;28;20022;-74
2022/04/09 21:47:51;;;;;;;3.55;1.73;;;;;;;;;;8222766;28;20042;-74
2022/04/09 21:51:53;;;;;;;4.55;1.92;;;;;;;;;;8225406;28;20026;-74
2022/04/09 21:55:55;;;;;;;2.72;1.80;;;;;;;;;;8226947;28;20046;-74
2022/04/09 21:59:56;;;;;;;2.45;1.77;;;;;;;;;;8235964;28;20027;-74
2022/04/09 22:03:56;;;;;;;3.47;1.90;;;;;;;;;;8221778;28;20118;-74
2022/04/09 22:07:56;;;;;;;3.75;1.88;;;;;;;;;;8220412;28;20030;-74
2022/04/09 22:11:57;;;;;;;5.85;1.95;;;;;;;;;;8220283;28;21858;-74
2022/04/09 22:15:58;;;;;;;5.78;2.03;;;;;;;;;;8220953;28;20635;-74
2022/04/09 22:19:58;;;;;;;4.43;2.25;;;;;;;;;;8234532;28;20023;-74
2022/04/09 22:24:00;;;;;;;6.03;2.28;;;;;;;;;;8220979;28;20030;-74
2022/04/09 22:28:02;;;;;;;3.05;1.90;;;;;;;;;;8202596;28;21089;-73
2022/04/09 22:32:02;;;;;;;4.30;2.33;;;;;;;;;;8219730;28;20035;-74
2022/04/09 22:36:03;;;;;;;5.65;2.38;;;;;;;;;;8216794;28;20058;-74
2022/04/09 22:40:07;;;;;;;2.90;2.17;;;;;;;;;;8217479;28;20398;-74
2022/04/09 22:44:09;;;;;;;5.05;2.47;;;;;;;;;;8219678;28;20424;-74
2022/04/09 22:48:11;;;;;;;3.38;2.30;;;;;;;;;;8219875;28;20049;-74
2022/04/09 22:52:11;;;;;;;4.13;2.40;;;;;;;;;;8220168;28;20041;-74
2022/04/09 22:56:13;;;;;;;5.40;2.40;;;;;;;;;;8228278;28;20031;-74
2022/04/09 23:00:13;;;;;;;6.25;2.55;;;;;;;;;;8219281;28;20239;-74
2022/04/09 23:04:14;;;;;;;3.20;2.47;;;;;;;;;;8215018;28;20042;-74
2022/04/09 23:08:14;;;;;;;3.55;2.50;;;;;;;;;;8215216;28;20030;-74
2022/04/09 23:12:14;;;;;;;7.30;3.63;;;;;;;;;;8221899;28;20058;-74
2022/04/09 23:16:15;;;;;;;4.50;2.75;;;;;;;;;;8216499;28;20073;-74
2022/04/09 23:20:15;;;;;;;5.00;2.58;;;;;;;;;;8219407;28;20038;-74
2022/04/09 23:24:16;;;;;;;6.18;2.90;;;;;;;;;;8216762;28;20270;-74
2022/04/09 23:28:16;;;;;;;4.75;2.67;;;;;;;;;;8217015;28;20630;-74
2022/04/09 23:32:17;;;;;;;7.90;2.92;;;;;;;;;;8217525;28;20065;-74
2022/04/09 23:36:17;;;;;;;3.75;2.17;;;;;;;;;;8217501;28;20033;-74
2022/04/09 23:40:19;;;;;;;3.13;2.40;;;;;;;;;;8218700;28;20027;-74
2022/04/09 23:44:19;;;;;;;3.97;2.47;;;;;;;;;;8217601;28;20270;-74
2022/04/09 23:48:21;;;;;;;2.47;2.20;;;;;;;;;;8214776;28;20047;-74
2022/04/09 23:52:21;;;;;;;4.22;2.28;;;;;;;;;;8216481;28;20415;-74
2022/04/09 23:56:21;;;;;;;3.53;2.78;;;;;;;;;;8213953;28;20030;-74
